Caribe Navigator — V2PW6 — position and weather

sailwx.info

Track history (hours):
 
Tides and Currents Weather Stations Pressure Air Temp Water Temp Dewpoint Dewpoint Depression Visibility Wind Speed Wind Dir Waves Ship Positions

Caribe Navigator

Last reported at 2017-Jan-20 00:28 UTC. Time now 2017-Jan-21 21:44 UTC.
Position N 25°17' W 080°04'.

Length 100 m; draft 5.4 m.

Type: Cargo ship. MMSI: 305289000.

Date/timePositionNaut miles runAvg speedWind from/ knotsBaromVisibWave heightAir tempDewpointWater temp
2017-Jan-20 00:28N 25°17' W 080°04'9 9.6
2017-Jan-19 23:33N 25°26' W 080°01'1010.1
2017-Jan-19 22:33N 25°36' W 080°02'10 9.9
2017-Jan-19 21:33N 25°46' W 080°02'1111.1
2017-Jan-19 20:34N 25°57' W 080°04'9 9.1
2017-Jan-19 19:33N 26°05' W 080°07'0 0.1
2017-Jan-19 18:32N 26°05' W 080°07'0 0.0
2017-Jan-19 17:32N 26°05' W 080°07'0 0.0
2017-Jan-19 16:32N 26°05' W 080°07'0 0.0
2017-Jan-19 15:17N 26°05' W 080°07'0 0.0
2017-Jan-19 14:32N 26°05' W 080°07'0 0.0
2017-Jan-19 13:32N 26°05' W 080°07'0 0.0
2017-Jan-19 12:32N 26°05' W 080°07'0 0.1
2017-Jan-19 11:32N 26°05' W 080°07'0 0.0
2017-Jan-19 10:32N 26°05' W 080°07'0 0.0
2017-Jan-19 09:32N 26°05' W 080°07'0 0.0
2017-Jan-19 08:32N 26°05' W 080°07'0 0.0
2017-Jan-19 07:32N 26°05' W 080°07'0 0.0
2017-Jan-19 06:29N 26°05' W 080°07'0 0.0
2017-Jan-19 05:29N 26°05' W 080°07'0 0.0
2017-Jan-19 04:26N 26°05' W 080°07'0 0.0
2017-Jan-19 03:26N 26°05' W 080°07'0 0.0
2017-Jan-19 02:22N 26°05' W 080°07'0 0.0
2017-Jan-19 01:25N 26°05' W 080°07'0 0.0
2017-Jan-19 00:25N 26°05' W 080°07'0 0.0
2017-Jan-18 23:28N 26°05' W 080°07'0 0.0
2017-Jan-18 22:28N 26°05' W 080°07'0 0.1
2017-Jan-18 21:28N 26°05' W 080°07'0 0.0
2017-Jan-18 20:28N 26°05' W 080°07'0 0.0
2017-Jan-18 19:28N 26°05' W 080°07'0 0.0
2017-Jan-18 18:28N 26°05' W 080°07'0 0.0
2017-Jan-18 17:31N 26°05' W 080°07'0 0.0
2017-Jan-18 16:31N 26°05' W 080°07'0 0.0
2017-Jan-18 15:31N 26°05' W 080°07'0 0.0
2017-Jan-18 14:31N 26°05' W 080°07'0 0.0
2017-Jan-18 13:31N 26°05' W 080°07'0 0.0
2017-Jan-18 12:31N 26°05' W 080°07'0 0.0
2017-Jan-18 11:31N 26°05' W 080°07'0 0.0
2017-Jan-18 10:31N 26°05' W 080°07'0 0.0
2017-Jan-18 09:31N 26°05' W 080°07'0 0.0
2017-Jan-18 08:31N 26°05' W 080°07'0 0.0
2017-Jan-18 07:31N 26°05' W 080°07'0 0.0
2017-Jan-18 06:31N 26°05' W 080°07'0 0.0
2017-Jan-18 05:25N 26°05' W 080°07'0 0.0
2017-Jan-18 04:22N 26°05' W 080°07'0 0.0
2017-Jan-18 03:33N 26°05' W 080°07'5 4.7
2017-Jan-18 02:33N 26°02' W 080°04'6 6.2
2017-Jan-18 01:33N 25°56' W 080°04'7 6.5
2017-Jan-18 00:33N 25°49' W 080°03'7 7.0
2017-Jan-17 23:33N 25°46' W 080°10'0 0.0
2017-Jan-17 22:30N 25°46' W 080°10'0 0.0
2017-Jan-17 21:33N 25°46' W 080°10'0 0.0
2017-Jan-17 20:33N 25°46' W 080°10'0 0.0
2017-Jan-17 19:33N 25°46' W 080°10'6 6.5
2017-Jan-17 18:34N 25°44' W 080°03'1817.5
2017-Jan-17 17:32N 25°26' W 080°02'  
2017-Jan-13 00:33N 25°19' W 080°03'1110.7
2017-Jan-12 23:33N 25°30' W 080°02'1111.1
2017-Jan-12 22:33N 25°41' W 080°02'1211.6
2017-Jan-12 21:33N 25°52' W 080°03'1313.0
2017-Jan-12 20:34N 26°05' W 080°05'2 2.0
2017-Jan-12 19:32N 26°05' W 080°07'0 0.0
2017-Jan-12 18:31N 26°05' W 080°07'0 0.0
2017-Jan-12 17:31N 26°05' W 080°07'0 0.0
2017-Jan-12 16:31N 26°05' W 080°07'0 0.0
2017-Jan-12 15:31N 26°05' W 080°07'0 0.0
2017-Jan-12 14:31N 26°05' W 080°07'0 0.0
2017-Jan-12 13:31N 26°05' W 080°07'0 0.1
2017-Jan-12 12:31N 26°06' W 080°07'0 0.0
2017-Jan-12 11:31N 26°06' W 080°07'0 0.0
2017-Jan-12 10:31N 26°06' W 080°07'0 0.0
2017-Jan-12 09:31N 26°06' W 080°07'0 0.0
2017-Jan-12 08:22N 26°06' W 080°07'0 0.0
2017-Jan-12 07:22N 26°06' W 080°07'0 0.0
2017-Jan-12 06:25N 26°06' W 080°07'0 0.0
2017-Jan-12 05:25N 26°06' W 080°07'0 0.0
2017-Jan-12 04:25N 26°06' W 080°07'0 0.0
2017-Jan-12 03:25N 26°06' W 080°07'0 0.0
2017-Jan-12 02:25N 26°06' W 080°07'0 0.0
2017-Jan-12 01:28N 26°06' W 080°07'0 0.0
2017-Jan-12 00:28N 26°06' W 080°07'0 0.0
2017-Jan-11 23:28N 26°06' W 080°07'0 0.0
2017-Jan-11 22:28N 26°06' W 080°07'0 0.0
2017-Jan-11 21:28N 26°06' W 080°07'0 0.0
2017-Jan-11 20:31N 26°06' W 080°07'0 0.0
2017-Jan-11 19:31N 26°06' W 080°07'0 0.0
2017-Jan-11 18:31N 26°06' W 080°07'0 0.0
2017-Jan-11 17:31N 26°06' W 080°07'0 0.0
2017-Jan-11 16:31N 26°06' W 080°07'0 0.0
2017-Jan-11 15:31N 26°06' W 080°07'0 0.0
2017-Jan-11 14:31N 26°06' W 080°07'0 0.0
2017-Jan-11 13:31N 26°06' W 080°07'0 0.0
2017-Jan-11 12:31N 26°06' W 080°07'0 0.0
2017-Jan-11 11:31N 26°06' W 080°07'0 0.0
2017-Jan-11 10:31N 26°06' W 080°07'0 0.0
2017-Jan-11 09:31N 26°06' W 080°07'0 0.0
2017-Jan-11 08:34N 26°06' W 080°07'0 0.0
2017-Jan-11 07:33N 26°06' W 080°07'2 2.4
2017-Jan-11 06:33N 26°05' W 080°05'1110.5
2017-Jan-11 05:33N 25°55' W 080°03'1110.7
2017-Jan-11 04:33N 25°46' W 080°10'0 0.4
2017-Jan-11 03:32N 25°46' W 080°10'0 0.0
2017-Jan-11 02:32N 25°46' W 080°10'0 0.0
2017-Jan-11 01:32N 25°46' W 080°10'0 0.0
2017-Jan-11 00:32N 25°46' W 080°10'0 0.0
2017-Jan-10 23:32N 25°46' W 080°10'0 0.0
2017-Jan-10 22:32N 25°46' W 080°10'0 0.0
2017-Jan-10 21:32N 25°46' W 080°10'0 0.0
2017-Jan-10 20:32N 25°46' W 080°10'0 0.2
2017-Jan-10 19:33N 25°46' W 080°10'9 8.6
2017-Jan-10 18:33N 25°41' W 080°03'1212.1
2017-Jan-10 17:33N 25°29' W 080°02'  
Track history (hours):
 
Tides and Currents Weather Stations Pressure Air Temp Water Temp Dewpoint Dewpoint Depression Visibility Wind Speed Wind Dir Waves Ship Positions

Caribe Navigator

Last reported at 2017-Jan-20 00:28 UTC. Time now 2017-Jan-21 21:44 UTC.
Position N 25°17' W 080°04'.

Length 100 m; draft 5.4 m.

Type: Cargo ship. MMSI: 305289000.

Date/timePositionNaut miles runAvg speedWind from/ knotsBaromVisibWave heightAir tempDewpointWater temp
2017-Jan-20 00:28N 25°17' W 080°04'9 9.6
2017-Jan-19 23:33N 25°26' W 080°01'1010.1
2017-Jan-19 22:33N 25°36' W 080°02'10 9.9
2017-Jan-19 21:33N 25°46' W 080°02'1111.1
2017-Jan-19 20:34N 25°57' W 080°04'9 9.1
2017-Jan-19 19:33N 26°05' W 080°07'0 0.1
2017-Jan-19 18:32N 26°05' W 080°07'0 0.0
2017-Jan-19 17:32N 26°05' W 080°07'0 0.0
2017-Jan-19 16:32N 26°05' W 080°07'0 0.0
2017-Jan-19 15:17N 26°05' W 080°07'0 0.0
2017-Jan-19 14:32N 26°05' W 080°07'0 0.0
2017-Jan-19 13:32N 26°05' W 080°07'0 0.0
2017-Jan-19 12:32N 26°05' W 080°07'0 0.1
2017-Jan-19 11:32N 26°05' W 080°07'0 0.0
2017-Jan-19 10:32N 26°05' W 080°07'0 0.0
2017-Jan-19 09:32N 26°05' W 080°07'0 0.0
2017-Jan-19 08:32N 26°05' W 080°07'0 0.0
2017-Jan-19 07:32N 26°05' W 080°07'0 0.0
2017-Jan-19 06:29N 26°05' W 080°07'0 0.0
2017-Jan-19 05:29N 26°05' W 080°07'0 0.0
2017-Jan-19 04:26N 26°05' W 080°07'0 0.0
2017-Jan-19 03:26N 26°05' W 080°07'0 0.0
2017-Jan-19 02:22N 26°05' W 080°07'0 0.0
2017-Jan-19 01:25N 26°05' W 080°07'0 0.0
2017-Jan-19 00:25N 26°05' W 080°07'0 0.0
2017-Jan-18 23:28N 26°05' W 080°07'0 0.0
2017-Jan-18 22:28N 26°05' W 080°07'0 0.1
2017-Jan-18 21:28N 26°05' W 080°07'0 0.0
2017-Jan-18 20:28N 26°05' W 080°07'0 0.0
2017-Jan-18 19:28N 26°05' W 080°07'0 0.0
2017-Jan-18 18:28N 26°05' W 080°07'0 0.0
2017-Jan-18 17:31N 26°05' W 080°07'0 0.0
2017-Jan-18 16:31N 26°05' W 080°07'0 0.0
2017-Jan-18 15:31N 26°05' W 080°07'0 0.0
2017-Jan-18 14:31N 26°05' W 080°07'0 0.0
2017-Jan-18 13:31N 26°05' W 080°07'0 0.0
2017-Jan-18 12:31N 26°05' W 080°07'0 0.0
2017-Jan-18 11:31N 26°05' W 080°07'0 0.0
2017-Jan-18 10:31N 26°05' W 080°07'0 0.0
2017-Jan-18 09:31N 26°05' W 080°07'0 0.0
2017-Jan-18 08:31N 26°05' W 080°07'0 0.0
2017-Jan-18 07:31N 26°05' W 080°07'0 0.0
2017-Jan-18 06:31N 26°05' W 080°07'0 0.0
2017-Jan-18 05:25N 26°05' W 080°07'0 0.0
2017-Jan-18 04:22N 26°05' W 080°07'0 0.0
2017-Jan-18 03:33N 26°05' W 080°07'5 4.7
2017-Jan-18 02:33N 26°02' W 080°04'6 6.2
2017-Jan-18 01:33N 25°56' W 080°04'7 6.5
2017-Jan-18 00:33N 25°49' W 080°03'7 7.0
2017-Jan-17 23:33N 25°46' W 080°10'0 0.0
2017-Jan-17 22:30N 25°46' W 080°10'0 0.0
2017-Jan-17 21:33N 25°46' W 080°10'0 0.0
2017-Jan-17 20:33N 25°46' W 080°10'0 0.0
2017-Jan-17 19:33N 25°46' W 080°10'6 6.5
2017-Jan-17 18:34N 25°44' W 080°03'1817.5
2017-Jan-17 17:32N 25°26' W 080°02'  
2017-Jan-13 00:33N 25°19' W 080°03'1110.7
2017-Jan-12 23:33N 25°30' W 080°02'1111.1
2017-Jan-12 22:33N 25°41' W 080°02'1211.6
2017-Jan-12 21:33N 25°52' W 080°03'1313.0
2017-Jan-12 20:34N 26°05' W 080°05'2 2.0
2017-Jan-12 19:32N 26°05' W 080°07'0 0.0
2017-Jan-12 18:31N 26°05' W 080°07'0 0.0
2017-Jan-12 17:31N 26°05' W 080°07'0 0.0
2017-Jan-12 16:31N 26°05' W 080°07'0 0.0
2017-Jan-12 15:31N 26°05' W 080°07'0 0.0
2017-Jan-12 14:31N 26°05' W 080°07'0 0.0
2017-Jan-12 13:31N 26°05' W 080°07'0 0.1
2017-Jan-12 12:31N 26°06' W 080°07'0 0.0
2017-Jan-12 11:31N 26°06' W 080°07'0 0.0
2017-Jan-12 10:31N 26°06' W 080°07'0 0.0
2017-Jan-12 09:31N 26°06' W 080°07'0 0.0
2017-Jan-12 08:22N 26°06' W 080°07'0 0.0
2017-Jan-12 07:22N 26°06' W 080°07'0 0.0
2017-Jan-12 06:25N 26°06' W 080°07'0 0.0
2017-Jan-12 05:25N 26°06' W 080°07'0 0.0
2017-Jan-12 04:25N 26°06' W 080°07'0 0.0
2017-Jan-12 03:25N 26°06' W 080°07'0 0.0
2017-Jan-12 02:25N 26°06' W 080°07'0 0.0
2017-Jan-12 01:28N 26°06' W 080°07'0 0.0
2017-Jan-12 00:28N 26°06' W 080°07'0 0.0
2017-Jan-11 23:28N 26°06' W 080°07'0 0.0
2017-Jan-11 22:28N 26°06' W 080°07'0 0.0
2017-Jan-11 21:28N 26°06' W 080°07'0 0.0
2017-Jan-11 20:31N 26°06' W 080°07'0 0.0
2017-Jan-11 19:31N 26°06' W 080°07'0 0.0
2017-Jan-11 18:31N 26°06' W 080°07'0 0.0
2017-Jan-11 17:31N 26°06' W 080°07'0 0.0
2017-Jan-11 16:31N 26°06' W 080°07'0 0.0
2017-Jan-11 15:31N 26°06' W 080°07'0 0.0
2017-Jan-11 14:31N 26°06' W 080°07'0 0.0
2017-Jan-11 13:31N 26°06' W 080°07'0 0.0
2017-Jan-11 12:31N 26°06' W 080°07'0 0.0
2017-Jan-11 11:31N 26°06' W 080°07'0 0.0
2017-Jan-11 10:31N 26°06' W 080°07'0 0.0
2017-Jan-11 09:31N 26°06' W 080°07'0 0.0
2017-Jan-11 08:34N 26°06' W 080°07'0 0.0
2017-Jan-11 07:33N 26°06' W 080°07'2 2.4
2017-Jan-11 06:33N 26°05' W 080°05'1110.5
2017-Jan-11 05:33N 25°55' W 080°03'1110.7
2017-Jan-11 04:33N 25°46' W 080°10'0 0.4
2017-Jan-11 03:32N 25°46' W 080°10'0 0.0
2017-Jan-11 02:32N 25°46' W 080°10'0 0.0
2017-Jan-11 01:32N 25°46' W 080°10'0 0.0
2017-Jan-11 00:32N 25°46' W 080°10'0 0.0
2017-Jan-10 23:32N 25°46' W 080°10'0 0.0
2017-Jan-10 22:32N 25°46' W 080°10'0 0.0
2017-Jan-10 21:32N 25°46' W 080°10'0 0.0
2017-Jan-10 20:32N 25°46' W 080°10'0 0.2
2017-Jan-10 19:33N 25°46' W 080°10'9 8.6
2017-Jan-10 18:33N 25°41' W 080°03'1212.1
2017-Jan-10 17:33N 25°29' W 080°02'  

Dump ship's entire track history